Richardson's Hourly Summary for Tuesday, May 15, 2018
Hour Temp
(f)
RH
(%)
Solar Rad.
(MJ/m2)
Rainfall
(in)
Wind
(mph)
5/15/2018 12:00 AM 78 65 0 0 6.29
5/15/2018 1:00 AM 77 66 0 0 5.65
5/15/2018 2:00 AM 77 67 0 0 4.69
5/15/2018 3:00 AM 76 67 0 0 4.71
5/15/2018 4:00 AM 76 70 0 0 5.3
5/15/2018 5:00 AM 75 70 0 0 4.44
5/15/2018 6:00 AM 75 71 0 0 2.86
5/15/2018 7:00 AM 74 73 0.01 0 3.12
5/15/2018 8:00 AM 74 74 0.22 0 2.42
5/15/2018 9:00 AM 73 75 0.25 0 4.03
5/15/2018 10:00 AM 71 77 0.14 0.12 4.84
5/15/2018 11:00 AM 71 84 0.78 0 4.32
5/15/2018 12:00 PM 74 73 2.04 0 6.4
5/15/2018 1:00 PM 77 57 2.17 0 6.59
5/15/2018 2:00 PM 79 56 1.95 0 6.05
5/15/2018 3:00 PM 82 50 2.88 0 4.99
5/15/2018 4:00 PM 84 44 2.65 0 5.25
5/15/2018 5:00 PM 85 38 1.37 0 3.51
5/15/2018 6:00 PM 84 42 0.71 0 4.06
5/15/2018 7:00 PM 81 47 0.32 0 3.96
5/15/2018 8:00 PM 76 61 0.19 0 5.58
5/15/2018 9:00 PM 75 63 0.01 0 5.27
5/15/2018 10:00 PM 73 65 0 0 1.64
5/15/2018 11:00 PM 72 69 0 0 0.32
Data Summary 76 63 15.69 0.12 4.43